createdAt,value
2018-02-16T00:00:20.012Z,76.37
2018-02-16T00:02:47.520Z,76.73
2018-02-16T00:05:15.011Z,78.23
2018-02-16T00:07:42.513Z,79.63
2018-02-16T00:10:09.990Z,73.30
2018-02-16T00:12:37.488Z,74.73
2018-02-16T00:15:05.739Z,68.60
2018-02-16T00:17:33.240Z,69.53
2018-02-16T00:20:01.507Z,72.07
2018-02-16T00:22:29.010Z,70.00
2018-02-16T00:24:57.255Z,79.70
2018-02-16T00:27:24.759Z,72.50
2018-02-16T00:29:53.008Z,69.77
2018-02-16T00:32:20.509Z,72.87
2018-02-16T00:34:47.984Z,76.80
2018-02-16T00:37:16.254Z,72.60
2018-02-16T00:39:43.735Z,77.97
2018-02-16T00:42:11.245Z,69.90
2018-02-16T00:44:38.730Z,82.33
2018-02-16T00:47:06.238Z,81.47
2018-02-16T00:49:33.715Z,77.57
2018-02-16T00:52:01.215Z,75.13
2018-02-16T00:54:28.699Z,79.70
2018-02-16T00:56:56.202Z,113.33
2018-02-16T00:59:23.687Z,81.63
2018-02-16T01:01:51.191Z,80.37
2018-02-16T01:04:18.682Z,81.73
2018-02-16T01:06:46.191Z,82.50
2018-02-16T01:09:13.678Z,75.93
2018-02-16T01:11:41.176Z,84.37
2018-02-16T01:14:08.656Z,70.50
2018-02-16T01:16:36.160Z,80.30
2018-02-16T01:19:03.651Z,83.70
2018-02-16T01:21:31.159Z,77.90
2018-02-16T01:23:58.647Z,84.60
2018-02-16T01:26:26.146Z,73.63
2018-02-16T01:28:53.650Z,69.97
2018-02-16T01:31:21.909Z,71.40
2018-02-16T01:33:49.411Z,65.33
2018-02-16T01:36:17.666Z,81.07
2018-02-16T01:38:45.165Z,77.30
2018-02-16T01:41:12.651Z,81.73
2018-02-16T01:43:40.927Z,86.07
2018-02-16T01:46:09.182Z,81.83
2018-02-16T01:48:36.688Z,81.67
2018-02-16T01:51:04.935Z,71.20
2018-02-16T01:53:32.880Z,65.73
2018-02-16T01:56:00.371Z,86.00
2018-02-16T01:58:27.877Z,68.33
2018-02-16T02:00:55.358Z,74.97
2018-02-16T02:03:23.646Z,67.90
2018-02-16T02:05:51.891Z,71.87
2018-02-16T02:08:19.368Z,71.67
2018-02-16T02:10:46.871Z,67.50
2018-02-16T02:13:14.365Z,84.87
2018-02-16T02:15:41.868Z,65.73
2018-02-16T02:18:09.355Z,76.70
2018-02-16T02:20:36.859Z,67.53
2018-02-16T02:23:04.342Z,65.17
2018-02-16T02:25:32.610Z,71.87
2018-02-16T02:28:00.096Z,63.27
2018-02-16T02:30:28.368Z,76.33
2018-02-16T02:32:56.625Z,68.70
2018-02-16T02:35:24.133Z,65.73
2018-02-16T02:37:52.379Z,72.20
2018-02-16T02:40:19.887Z,64.73
2018-02-16T02:42:48.147Z,65.07
2018-02-16T02:45:15.656Z,72.33
2018-02-16T02:47:43.904Z,61.87
2018-02-16T02:50:11.419Z,65.37
2018-02-16T02:52:39.666Z,60.37
2018-02-16T02:55:07.147Z,52.07
2018-02-16T02:57:34.655Z,63.33
2018-02-16T03:00:02.138Z,58.53
2018-02-16T03:02:29.639Z,60.03
2018-02-16T03:04:57.119Z,66.73
2018-02-16T03:07:24.630Z,71.53
2018-02-16T03:09:52.882Z,66.00
2018-02-16T03:12:20.446Z,60.30
2018-02-16T03:14:47.931Z,66.87
2018-02-16T03:17:15.448Z,66.10
2018-02-16T03:19:42.935Z,66.00
2018-02-16T03:22:10.443Z,73.03
2018-02-16T03:24:37.944Z,68.20
2018-02-16T03:27:05.446Z,98.03
2018-02-16T03:29:32.934Z,66.93
2018-02-16T03:32:00.435Z,65.60
2018-02-16T03:34:28.690Z,71.87
2018-02-16T03:36:56.195Z,85.27
2018-02-16T03:39:24.599Z,68.23
2018-02-16T03:41:52.111Z,163.60
2018-02-16T03:44:19.599Z,95.37
2018-02-16T03:46:47.109Z,79.27
2018-02-16T03:49:15.355Z,93.17
2018-02-16T03:51:42.864Z,109.40
2018-02-16T03:54:11.115Z,104.13
2018-02-16T03:56:38.623Z,89.00
2018-02-16T03:59:06.868Z,116.90
2018-02-16T04:01:34.375Z,83.67
2018-02-16T04:04:02.623Z,63.20
2018-02-16T04:06:30.131Z,63.27
2018-02-16T04:08:58.379Z,102.10
2018-02-16T04:11:25.882Z,74.37
2018-02-16T04:13:53.364Z,90.97
2018-02-16T04:16:21.652Z,105.13
2018-02-16T04:18:49.898Z,89.80
2018-02-16T04:21:17.386Z,79.17
2018-02-16T04:23:44.891Z,154.77
2018-02-16T04:26:13.144Z,139.40
2018-02-16T04:28:40.666Z,84.63
2018-02-16T04:31:08.147Z,313.43
2018-02-16T04:33:35.659Z,126.60
2018-02-16T04:36:03.147Z,165.40
2018-02-16T04:38:31.427Z,120.03
2018-02-16T04:40:58.910Z,95.87
2018-02-16T04:43:27.182Z,249.63
2018-02-16T04:45:55.447Z,171.73
2018-02-16T04:48:22.964Z,142.30
2018-02-16T04:50:50.452Z,159.63
2018-02-16T04:53:17.951Z,181.93
2018-02-16T04:55:45.435Z,162.83
2018-02-16T04:58:12.939Z,193.60
2018-02-16T05:00:41.187Z,152.10
2018-02-16T05:03:08.690Z,198.67
2018-02-16T05:05:36.943Z,221.67
2018-02-16T05:08:04.459Z,100.07
2018-02-16T05:10:31.956Z,134.10
2018-02-16T05:12:59.459Z,272.93
2018-02-16T05:15:26.951Z,155.03
2018-02-16T05:17:55.223Z,139.10
2018-02-16T05:20:22.712Z,246.93
2018-02-16T05:22:50.987Z,185.07
2018-02-16T05:25:18.479Z,178.37
2018-02-16T05:27:46.754Z,151.80
2018-02-16T05:30:14.243Z,207.70
2018-02-16T05:32:42.511Z,200.17
2018-02-16T05:35:09.994Z,304.60
2018-02-16T05:37:38.263Z,269.20
2018-02-16T05:40:05.760Z,198.80
2018-02-16T05:42:34.031Z,210.77
2018-02-16T05:45:01.523Z,258.70
2018-02-16T05:47:29.787Z,281.77
2018-02-16T05:49:57.279Z,384.87
2018-02-16T05:52:25.558Z,196.07
2018-02-16T05:54:53.806Z,266.57
2018-02-16T05:57:21.314Z,186.67
2018-02-16T05:59:48.822Z,204.37
2018-02-16T06:02:16.322Z,231.00
2018-02-16T06:04:43.807Z,138.40
2018-02-16T06:07:11.305Z,115.47
2018-02-16T06:09:39.558Z,230.73
2018-02-16T06:12:07.067Z,235.27
2018-02-16T06:14:34.554Z,134.53
2018-02-16T06:17:02.059Z,141.03
2018-02-16T06:19:29.538Z,323.67
2018-02-16T06:21:57.053Z,166.30
2018-02-16T06:24:24.544Z,306.40
2018-02-16T06:26:52.027Z,203.07
2018-02-16T06:29:19.530Z,199.13
2018-02-16T06:31:47.022Z,261.63
2018-02-16T06:34:15.290Z,181.23
2018-02-16T06:36:42.783Z,108.83
2018-02-16T06:39:10.290Z,174.83
2018-02-16T06:41:37.771Z,104.53
2018-02-16T06:44:05.271Z,144.03
2018-02-16T06:46:32.859Z,113.10
2018-02-16T06:49:01.174Z,113.63
2018-02-16T06:51:28.687Z,145.40
2018-02-16T06:53:56.263Z,111.43
2018-02-16T06:56:23.751Z,115.13
2018-02-16T06:58:51.279Z,116.33
2018-02-16T07:01:19.770Z,170.90
2018-02-16T07:03:47.319Z,249.97
2018-02-16T07:06:14.818Z,110.83
2018-02-16T07:08:42.331Z,95.30
2018-02-16T07:11:10.629Z,116.20
2018-02-16T07:13:38.163Z,117.90
2018-02-16T07:16:05.648Z,95.67
2018-02-16T07:18:33.169Z,235.87
2018-02-16T07:21:01.422Z,126.50
2018-02-16T07:23:29.700Z,97.07
2018-02-16T07:25:57.203Z,129.23
2018-02-16T07:28:24.732Z,113.20
2018-02-16T07:30:52.218Z,128.17
2018-02-16T07:33:20.486Z,119.60
2018-02-16T07:35:47.971Z,86.37
2018-02-16T07:38:15.484Z,101.23
2018-02-16T07:40:42.973Z,89.30
2018-02-16T07:43:10.513Z,139.37
2018-02-16T07:45:38.013Z,98.80
2018-02-16T07:48:05.510Z,91.63
2018-02-16T07:50:32.994Z,78.57
2018-02-16T07:53:00.491Z,72.27
2018-02-16T07:55:27.975Z,81.20
2018-02-16T07:57:55.491Z,71.47
2018-02-16T08:00:22.980Z,90.23
2018-02-16T08:02:51.276Z,64.40
2018-02-16T08:05:19.520Z,68.90
2018-02-16T08:07:47.019Z,114.70
2018-02-16T08:10:14.507Z,100.87
2018-02-16T08:12:42.777Z,128.80
2018-02-16T08:15:10.261Z,122.67
2018-02-16T08:17:38.531Z,148.00
2018-02-16T08:20:06.015Z,129.90
2018-02-16T08:22:34.288Z,117.40
2018-02-16T08:25:01.777Z,131.97
2018-02-16T08:27:29.278Z,135.13
2018-02-16T08:29:56.763Z,166.23
2018-02-16T08:32:24.251Z,164.97
2018-02-16T08:34:51.760Z,144.83
2018-02-16T08:37:20.008Z,260.03
2018-02-16T08:39:47.511Z,141.67
2018-02-16T08:42:15.762Z,167.07
2018-02-16T08:44:43.266Z,191.40
2018-02-16T08:47:11.519Z,135.00
2018-02-16T08:49:39.018Z,94.07
2018-02-16T08:52:06.499Z,104.80
2018-02-16T08:54:34.768Z,155.50
2018-02-16T08:57:02.252Z,105.13
2018-02-16T08:59:29.754Z,131.93
2018-02-16T09:01:57.251Z,89.97
2018-02-16T09:04:24.757Z,103.50
2018-02-16T09:06:52.244Z,69.27
2018-02-16T09:09:20.514Z,55.00
2018-02-16T09:11:47.999Z,74.47
2018-02-16T09:14:16.263Z,79.00
2018-02-16T09:16:43.775Z,56.03
2018-02-16T09:19:15.067Z,85.53
2018-02-16T09:21:42.554Z,58.87
2018-02-16T09:24:10.056Z,65.70
2018-02-16T09:26:38.301Z,51.63
2018-02-16T09:29:05.813Z,60.77
2018-02-16T09:31:34.063Z,52.47
2018-02-16T09:34:01.567Z,67.60
2018-02-16T09:36:29.048Z,61.53
2018-02-16T09:38:59.987Z,51.07
2018-02-16T09:41:28.242Z,38.50
2018-02-16T09:43:55.738Z,39.87
2018-02-16T09:46:23.219Z,95.13
2018-02-16T09:48:51.479Z,57.03
2018-02-16T09:51:18.979Z,54.63
2018-02-16T09:53:47.251Z,47.10
2018-02-16T09:56:14.727Z,90.53
2018-02-16T09:58:42.240Z,46.10
2018-02-16T10:01:09.726Z,69.43
2018-02-16T10:03:37.232Z,49.10
2018-02-16T10:06:04.710Z,97.77
2018-02-16T10:08:32.207Z,43.23
2018-02-16T10:10:59.691Z,40.90
2018-02-16T10:13:27.197Z,38.40
2018-02-16T10:15:54.688Z,42.97
2018-02-16T10:18:22.192Z,43.00
2018-02-16T10:20:49.664Z,34.80
2018-02-16T10:23:17.152Z,70.80
2018-02-16T10:25:44.652Z,71.03
2018-02-16T10:28:12.143Z,47.10
2018-02-16T10:30:39.638Z,41.40
2018-02-16T10:33:07.118Z,41.63
2018-02-16T10:35:34.619Z,40.30
2018-02-16T10:38:02.102Z,51.10
2018-02-16T10:40:30.588Z,47.23
2018-02-16T10:42:59.063Z,48.70
2018-02-16T10:45:26.578Z,48.87
2018-02-16T10:47:54.831Z,51.23
2018-02-16T10:50:22.335Z,35.53
2018-02-16T10:52:49.819Z,36.03
2018-02-16T10:55:18.086Z,37.87
2018-02-16T10:57:45.576Z,43.27
2018-02-16T11:00:13.891Z,34.80
2018-02-16T11:02:47.140Z,71.03
2018-02-16T11:05:14.648Z,61.90
2018-02-16T11:07:47.828Z,42.20
2018-02-16T11:10:15.331Z,75.17
2018-02-16T11:12:42.815Z,37.60
2018-02-16T11:15:10.314Z,63.77
2018-02-16T11:17:37.803Z,186.90
2018-02-16T11:20:05.312Z,55.87
2018-02-16T11:22:32.807Z,41.10
2018-02-16T11:25:01.094Z,35.73
2018-02-16T11:27:28.604Z,42.93
2018-02-16T11:29:56.119Z,32.83
2018-02-16T11:32:23.606Z,33.80
2018-02-16T11:34:51.123Z,34.53
2018-02-16T11:37:19.379Z,40.07
2018-02-16T11:39:46.885Z,64.83
2018-02-16T11:42:15.140Z,36.90
2018-02-16T11:44:42.647Z,39.90
2018-02-16T11:47:10.903Z,101.57
2018-02-16T11:49:38.406Z,43.40
2018-02-16T11:52:06.668Z,36.67
2018-02-16T11:54:34.187Z,41.70
2018-02-16T11:57:01.690Z,39.27
2018-02-16T11:59:29.188Z,31.80
2018-02-16T12:01:56.714Z,35.87
2018-02-16T12:04:24.197Z,33.20
2018-02-16T12:06:51.702Z,32.90
2018-02-16T12:09:19.488Z,33.80
2018-02-16T12:11:47.747Z,26.00
2018-02-16T12:14:15.259Z,43.33
2018-02-16T12:16:42.761Z,39.00
2018-02-16T12:19:10.286Z,37.20
2018-02-16T12:21:38.538Z,29.07
2018-02-16T12:24:06.185Z,30.60
2018-02-16T12:26:33.761Z,28.60
2018-02-16T12:29:01.420Z,28.00
2018-02-16T12:31:28.947Z,30.37
2018-02-16T12:33:56.441Z,29.43
2018-02-16T12:36:23.975Z,33.83
2018-02-16T12:38:51.471Z,28.27
2018-02-16T12:41:19.756Z,27.53
2018-02-16T12:43:48.024Z,46.40
2018-02-16T12:46:15.537Z,43.33
2018-02-16T12:48:43.791Z,29.33
2018-02-16T12:51:11.296Z,28.90
2018-02-16T12:54:01.209Z,33.23
2018-02-16T12:56:28.722Z,24.93
2018-02-16T12:58:56.223Z,28.43
2018-02-16T13:01:24.511Z,25.73
2018-02-16T13:03:52.775Z,28.97
2018-02-16T13:06:20.300Z,26.80
2018-02-16T13:08:47.803Z,24.23
2018-02-16T13:11:15.315Z,21.47
2018-02-16T13:13:43.567Z,28.80
2018-02-16T13:16:11.089Z,26.37
2018-02-16T13:18:38.592Z,27.53
2018-02-16T13:21:06.100Z,25.43
2018-02-16T13:23:33.600Z,27.57
2018-02-16T13:26:01.103Z,24.33
2018-02-16T13:28:28.651Z,49.30
2018-02-16T13:30:56.155Z,22.20
2018-02-16T13:33:23.675Z,27.37
2018-02-16T13:35:51.936Z,21.60
2018-02-16T13:38:19.479Z,24.33
2018-02-16T13:40:47.004Z,23.87
2018-02-16T13:43:14.527Z,23.10
2018-02-16T13:45:42.018Z,22.33
2018-02-16T13:48:09.535Z,29.27
2018-02-16T13:50:37.027Z,21.10
2018-02-16T13:53:04.555Z,25.00
2018-02-16T13:55:32.072Z,22.70
2018-02-16T13:57:59.620Z,19.57
2018-02-16T14:00:27.094Z,16.83
2018-02-16T14:02:54.627Z,18.07
2018-02-16T14:05:22.882Z,20.63
2018-02-16T14:07:50.379Z,20.03
2018-02-16T14:10:18.667Z,20.77
2018-02-16T14:12:46.156Z,18.67
2018-02-16T14:15:14.420Z,20.23
2018-02-16T14:17:41.904Z,15.00
2018-02-16T14:20:10.179Z,22.00
2018-02-16T14:22:37.666Z,19.53
2018-02-16T14:25:05.951Z,15.70
2018-02-16T14:27:34.207Z,18.90
2018-02-16T14:30:01.715Z,15.33
2018-02-16T14:32:29.984Z,14.17
2018-02-16T14:34:57.505Z,39.17
2018-02-16T14:37:24.993Z,33.07
2018-02-16T14:39:52.495Z,15.67
2018-02-16T14:42:19.971Z,9.43
2018-02-16T14:44:47.478Z,11.40
2018-02-16T14:47:14.974Z,12.40
2018-02-16T14:49:42.481Z,13.00
2018-02-16T14:52:09.967Z,12.27
2018-02-16T14:54:38.234Z,12.70
2018-02-16T14:57:05.736Z,25.20
2018-02-16T14:59:33.259Z,24.53
2018-02-16T15:02:00.771Z,15.43
2018-02-16T15:04:28.266Z,14.13
2018-02-16T15:06:55.782Z,18.87
2018-02-16T15:09:23.279Z,14.47
2018-02-16T15:11:50.798Z,15.80
2018-02-16T15:14:18.290Z,11.23
2018-02-16T15:16:45.798Z,13.03
2018-02-16T15:19:13.295Z,12.23
2018-02-16T15:21:41.646Z,14.90
2018-02-16T15:24:09.899Z,11.73
2018-02-16T15:26:37.415Z,12.60
2018-02-16T15:29:04.899Z,13.13
2018-02-16T15:31:32.422Z,20.37
2018-02-16T15:33:59.918Z,15.17
2018-02-16T15:36:28.211Z,15.63
2018-02-16T15:38:55.709Z,13.97
2018-02-16T15:41:23.219Z,8.80
2018-02-16T15:43:50.713Z,9.83
2018-02-16T15:46:18.988Z,10.20
2018-02-16T15:48:46.475Z,13.27
2018-02-16T15:51:14.756Z,12.03
2018-02-16T15:53:43.009Z,12.50
2018-02-16T15:56:10.541Z,12.80
2018-02-16T15:58:38.048Z,12.87
2018-02-16T16:01:05.524Z,8.13
2018-02-16T16:03:33.827Z,11.20
2018-02-16T16:06:01.316Z,11.30
2018-02-16T16:08:29.596Z,21.23
2018-02-16T16:10:57.091Z,12.43
2018-02-16T16:13:24.631Z,9.77
2018-02-16T16:15:52.167Z,15.83
2018-02-16T16:18:19.682Z,13.90
2018-02-16T16:20:47.932Z,14.27
2018-02-16T16:23:15.448Z,14.80
2018-02-16T16:25:43.695Z,11.63
2018-02-16T16:28:11.199Z,12.47
2018-02-16T16:30:38.683Z,19.90
2018-02-16T16:33:06.951Z,17.53
2018-02-16T16:35:34.452Z,21.53
2018-02-16T16:38:01.972Z,17.10
2018-02-16T16:40:29.457Z,16.77
2018-02-16T16:42:56.979Z,13.50
2018-02-16T16:45:24.463Z,15.43
2018-02-16T16:47:51.952Z,14.97
2018-02-16T16:50:20.251Z,18.37
2018-02-16T16:52:47.748Z,23.13
2018-02-16T16:55:16.015Z,14.00
2018-02-16T16:57:43.506Z,45.97
2018-02-16T17:00:11.032Z,61.27
2018-02-16T17:02:38.515Z,22.80
2018-02-16T17:05:06.018Z,22.20
2018-02-16T17:07:34.276Z,22.47
2018-02-16T17:10:01.791Z,21.00
2018-02-16T17:12:29.284Z,20.10
2018-02-16T17:14:56.798Z,20.37
2018-02-16T17:17:24.288Z,16.80
2018-02-16T17:19:52.564Z,23.43
2018-02-16T17:22:20.822Z,17.23
2018-02-16T17:24:48.329Z,18.97
2018-02-16T17:27:16.579Z,18.20
2018-02-16T17:29:44.091Z,18.23
2018-02-16T17:32:12.344Z,23.50
2018-02-16T17:34:39.873Z,20.53
2018-02-16T17:37:07.365Z,57.57
2018-02-16T17:39:34.851Z,67.83
2018-02-16T17:42:02.350Z,24.63
2018-02-16T17:44:30.598Z,18.73
2018-02-16T17:46:58.105Z,22.37
2018-02-16T17:49:26.358Z,27.97
2018-02-16T17:51:53.859Z,25.33
2018-02-16T17:54:21.344Z,25.07
2018-02-16T17:56:48.851Z,26.70
2018-02-16T17:59:16.336Z,23.07
2018-02-16T18:01:43.854Z,25.40
2018-02-16T18:04:12.109Z,26.30
2018-02-16T18:06:39.614Z,24.50
2018-02-16T18:09:07.867Z,26.20
2018-02-16T18:11:35.724Z,21.70
2018-02-16T18:14:03.212Z,29.20
2018-02-16T18:16:30.714Z,22.00
2018-02-16T18:18:58.962Z,21.03
2018-02-16T18:21:26.478Z,24.17
2018-02-16T18:23:54.746Z,30.20
2018-02-16T18:26:22.264Z,19.70
2018-02-16T18:28:49.750Z,29.60
2018-02-16T18:31:17.255Z,25.10
2018-02-16T18:33:44.743Z,23.47
2018-02-16T18:36:13.015Z,32.20
2018-02-16T18:38:40.501Z,28.77
2018-02-16T18:41:08.776Z,25.43
2018-02-16T18:43:37.027Z,26.50
2018-02-16T18:46:04.535Z,22.87
2018-02-16T18:48:32.795Z,25.73
2018-02-16T18:51:00.307Z,23.20
2018-02-16T18:53:28.551Z,36.00
2018-02-16T18:55:56.069Z,25.97
2018-02-16T18:58:23.575Z,29.10
2018-02-16T19:00:51.084Z,22.50
2018-02-16T19:03:18.567Z,24.13
2018-02-16T19:05:46.846Z,23.33
2018-02-16T19:08:14.337Z,37.90
2018-02-16T19:10:42.656Z,39.67
2018-02-16T19:13:10.123Z,35.83
2018-02-16T19:15:37.643Z,19.90
2018-02-16T19:18:05.126Z,21.07
2018-02-16T19:20:33.383Z,26.43
2018-02-16T19:23:00.903Z,24.50
2018-02-16T19:25:28.454Z,32.43
2018-02-16T19:27:56.739Z,31.30
2018-02-16T19:30:24.997Z,28.43
2018-02-16T19:32:52.511Z,26.20
2018-02-16T19:35:20.936Z,23.43
2018-02-16T19:37:48.464Z,26.70
2018-02-16T19:40:16.724Z,22.90
2018-02-16T19:42:44.234Z,25.30
2018-02-16T19:45:12.494Z,21.73
2018-02-16T19:47:40.416Z,21.90
2018-02-16T19:50:08.939Z,18.10
2018-02-16T19:52:36.501Z,20.10
2018-02-16T19:55:04.504Z,21.27
2018-02-16T19:57:32.408Z,23.87
2018-02-16T19:59:59.951Z,25.20
2018-02-16T20:02:28.092Z,30.27
2018-02-16T20:04:55.697Z,25.13
2018-02-16T20:07:23.204Z,27.20
2018-02-16T20:09:50.695Z,53.40
2018-02-16T20:12:18.221Z,44.17
2018-02-16T20:14:45.707Z,22.90
2018-02-16T20:17:13.382Z,23.77
2018-02-16T20:19:41.667Z,19.70
2018-02-16T20:22:09.175Z,21.93
2018-02-16T20:24:36.667Z,24.17
2018-02-16T20:27:04.186Z,20.50
2018-02-16T20:29:31.683Z,15.60
2018-02-16T20:31:59.205Z,21.73
2018-02-16T20:34:26.695Z,25.00
2018-02-16T20:36:54.208Z,33.10
2018-02-16T20:39:21.708Z,25.50
2018-02-16T20:41:49.222Z,29.13
2018-02-16T20:44:16.707Z,26.93
2018-02-16T20:46:44.983Z,28.07
2018-02-16T20:49:13.238Z,32.00
2018-02-16T20:51:40.754Z,24.20
2018-02-16T20:54:09.008Z,25.20
2018-02-16T20:56:36.544Z,17.93
2018-02-16T20:59:04.031Z,25.83
2018-02-16T21:01:31.548Z,19.17
2018-02-16T21:03:59.799Z,24.00
2018-02-16T21:06:27.306Z,16.50
2018-02-16T21:08:55.568Z,23.97
2018-02-16T21:11:23.075Z,17.40
2018-02-16T21:13:50.564Z,19.70
2018-02-16T21:16:18.079Z,22.50
2018-02-16T21:18:45.567Z,17.70
2018-02-16T21:21:13.836Z,17.30
2018-02-16T21:23:41.318Z,19.80
2018-02-16T21:26:08.827Z,15.73
2018-02-16T21:28:36.323Z,29.00
2018-02-16T21:31:03.815Z,122.67
2018-02-16T21:33:31.339Z,33.90
2018-02-16T21:35:58.824Z,13.87
2018-02-16T21:38:26.323Z,16.57
2018-02-16T21:40:53.815Z,23.43
2018-02-16T21:43:21.314Z,17.23
2018-02-16T21:45:48.807Z,19.27
2018-02-16T21:48:16.312Z,17.67
2018-02-16T21:50:43.812Z,15.37
2018-02-16T21:53:12.088Z,23.50
2018-02-16T21:55:39.589Z,18.60
2018-02-16T21:58:07.087Z,21.20
2018-02-16T22:00:34.571Z,14.93
2018-02-16T22:03:02.071Z,16.57
2018-02-16T22:05:30.364Z,16.53
2018-02-16T22:07:57.836Z,15.80
2018-02-16T22:10:26.083Z,15.70
2018-02-16T22:12:53.579Z,17.97
2018-02-16T22:15:21.068Z,13.67
2018-02-16T22:17:49.335Z,17.23
2018-02-16T22:20:16.819Z,18.40
2018-02-16T22:22:45.083Z,21.60
2018-02-16T22:25:12.572Z,15.50
2018-02-16T22:27:40.851Z,20.00
2018-02-16T22:30:08.332Z,15.20
2018-02-16T22:32:36.599Z,14.63
2018-02-16T22:35:04.082Z,17.57
2018-02-16T22:37:31.584Z,16.80
2018-02-16T22:39:59.063Z,19.80
2018-02-16T22:42:26.569Z,19.17
2018-02-16T22:44:54.051Z,15.97
2018-02-16T22:47:21.548Z,14.67
2018-02-16T22:49:49.788Z,12.20
2018-02-16T22:52:17.286Z,15.53
2018-02-16T22:54:44.762Z,19.13
2018-02-16T22:57:12.258Z,19.40
2018-02-16T22:59:39.747Z,18.20
2018-02-16T23:02:07.261Z,18.37
2018-02-16T23:04:34.739Z,28.03
2018-02-16T23:07:02.244Z,17.23
2018-02-16T23:09:29.731Z,28.43
2018-02-16T23:11:57.236Z,17.50
2018-02-16T23:14:24.724Z,21.60
2018-02-16T23:16:52.986Z,25.40
2018-02-16T23:19:20.479Z,22.00
2018-02-16T23:21:47.980Z,24.30
2018-02-16T23:24:15.455Z,21.27
2018-02-16T23:26:42.966Z,19.80
2018-02-16T23:29:10.461Z,16.87
2018-02-16T23:31:37.950Z,19.83
2018-02-16T23:34:05.464Z,23.20
2018-02-16T23:36:32.946Z,22.53
2018-02-16T23:39:00.447Z,22.33
2018-02-16T23:41:28.698Z,23.33
2018-02-16T23:43:56.155Z,23.13
2018-02-16T23:46:23.646Z,24.87
2018-02-16T23:48:51.172Z,21.77
2018-02-16T23:51:18.660Z,26.00
2018-02-16T23:53:46.948Z,24.67
2018-02-16T23:56:15.204Z,24.60
2018-02-16T23:58:42.712Z,26.50
